Time;durP1;ratioP1;P1;durP2;ratioP2;P2;SDS_P1;SDS_P2;PMS_P1;PMS_P2;Temp;Humidity;BMP_temperature;BMP_pressure;BME280_temperature;BME280_humidity;BME280_pressure;Samples;Min_cycle;Max_cycle;Signal;HPM_P1;HPM_P2
2022/08/25 00:01:32;;;;;;;11.18;4.07;;;;;;;21.69;100.00;98651.53;5173287;27;20115;-49
2022/08/25 00:04:00;;;;;;;14.25;3.95;;;;;;;21.62;100.00;98649.78;5173677;27;20394;-48
2022/08/25 00:06:26;;;;;;;12.43;4.78;;;;;;;21.67;100.00;98654.00;5173493;27;20422;-52
2022/08/25 00:08:53;;;;;;;14.30;3.97;;;;;;;21.67;100.00;98646.41;5173367;27;20081;-51
2022/08/25 00:11:23;;;;;;;20.08;4.20;;;;;;;21.64;100.00;98654.91;5173210;27;20057;-52
2022/08/25 00:13:53;;;;;;;10.23;3.88;;;;;;;21.63;100.00;98656.16;5173366;27;20054;-48
2022/08/25 00:16:21;;;;;;;14.55;3.35;;;;;;;21.68;100.00;98647.97;5173263;27;20046;-52
2022/08/25 00:18:50;;;;;;;6.95;3.90;;;;;;;21.60;100.00;98653.03;5173279;27;20072;-50
2022/08/25 00:21:17;;;;;;;7.65;3.83;;;;;;;21.64;100.00;98649.34;5173404;27;20082;-48
2022/08/25 00:23:44;;;;;;;11.63;3.63;;;;;;;21.51;100.00;98643.78;5173023;27;20046;-49
2022/08/25 00:26:11;;;;;;;9.98;4.43;;;;;;;21.39;100.00;98645.38;5173360;27;20493;-50
2022/08/25 00:28:38;;;;;;;5.72;4.10;;;;;;;21.41;100.00;98634.56;5172942;27;20524;-48
2022/08/25 00:31:10;;;;;;;11.45;4.00;;;;;;;21.33;100.00;98650.75;5173470;27;20050;-48
2022/08/25 00:33:36;;;;;;;21.27;4.10;;;;;;;21.24;100.00;98647.88;5172798;27;20132;-48
2022/08/25 00:36:03;;;;;;;18.50;4.20;;;;;;;21.32;100.00;98635.22;5172917;27;20049;-48
2022/08/25 00:38:30;;;;;;;16.40;4.10;;;;;;;21.39;100.00;98648.16;5172824;27;20061;-50
2022/08/25 00:41:06;;;;;;;6.53;3.45;;;;;;;21.26;100.00;98645.41;5172672;27;20190;-48
2022/08/25 00:43:44;;;;;;;8.57;4.25;;;;;;;21.20;100.00;98647.22;5173342;27;20129;-51
2022/08/25 00:46:13;;;;;;;13.35;4.05;;;;;;;21.08;100.00;98645.22;5172689;27;20446;-51
2022/08/25 00:48:41;;;;;;;10.90;5.40;;;;;;;21.09;100.00;98647.56;5173045;27;20140;-49
2022/08/25 00:51:10;;;;;;;13.60;3.95;;;;;;;21.09;100.00;98636.44;5171965;27;20053;-50
2022/08/25 00:53:38;;;;;;;12.40;3.78;;;;;;;21.12;100.00;98643.09;5172926;27;20057;-48
2022/08/25 00:56:05;;;;;;;12.00;3.80;;;;;;;21.04;100.00;98647.34;5172323;27;20133;-49
2022/08/25 00:58:33;;;;;;;8.05;4.10;;;;;;;21.07;100.00;98641.66;5172548;27;20047;-49
2022/08/25 01:01:00;;;;;;;16.92;4.25;;;;;;;20.98;100.00;98649.91;5172454;27;20054;-50
2022/08/25 01:03:32;;;;;;;18.17;3.70;;;;;;;20.99;100.00;98653.47;5172531;27;20508;-49
2022/08/25 01:06:01;;;;;;;9.20;3.92;;;;;;;21.00;100.00;98644.69;5172630;27;20079;-48
2022/08/25 01:08:29;;;;;;;7.22;3.72;;;;;;;20.87;100.00;98646.69;5172415;27;20053;-51
2022/08/25 01:10:57;;;;;;;10.88;3.90;;;;;;;20.79;100.00;98679.59;5172668;27;20500;-49
2022/08/25 01:13:28;;;;;;;12.40;4.32;;;;;;;20.73;100.00;98661.88;5172157;27;20050;-48
2022/08/25 01:15:56;;;;;;;13.50;3.78;;;;;;;20.65;100.00;98678.00;5172677;27;20046;-51
2022/08/25 01:18:24;;;;;;;12.82;3.95;;;;;;;20.64;100.00;98695.94;5172246;27;20045;-48
2022/08/25 01:20:52;;;;;;;7.53;3.72;;;;;;;20.51;100.00;98694.38;5172530;27;20086;-48
2022/08/25 01:23:18;;;;;;;12.80;3.83;;;;;;;20.33;100.00;98697.66;5172086;27;20141;-48
2022/08/25 01:25:51;;;;;;;25.00;4.35;;;;;;;20.51;100.00;98695.16;5172176;27;20057;-48
2022/08/25 01:28:18;;;;;;;17.17;4.78;;;;;;;20.46;100.00;98712.38;5172134;27;20094;-48
2022/08/25 01:30:44;;;;;;;7.80;3.97;;;;;;;20.47;100.00;98713.16;5172109;27;20107;-47
2022/08/25 01:33:11;;;;;;;12.40;4.55;;;;;;;20.40;100.00;98709.38;5172112;27;20050;-50
2022/08/25 01:35:38;;;;;;;19.02;3.97;;;;;;;20.38;100.00;98725.72;5172171;27;20466;-50
2022/08/25 01:38:06;;;;;;;13.75;5.05;;;;;;;20.38;100.00;98716.59;5172161;27;20425;-50
2022/08/25 01:40:34;;;;;;;15.88;3.90;;;;;;;20.29;100.00;98733.16;5171992;27;20496;-47
2022/08/25 01:43:08;;;;;;;12.25;5.35;;;;;;;20.44;100.00;98709.25;5172142;27;20051;-47
2022/08/25 01:45:35;;;;;;;10.43;5.72;;;;;;;20.41;100.00;98699.00;5171802;27;20046;-49
2022/08/25 01:48:01;;;;;;;14.48;5.70;;;;;;;20.34;100.00;98719.47;5171869;27;20046;-48
2022/08/25 01:50:28;;;;;;;17.80;4.05;;;;;;;20.44;100.00;98707.25;5171802;27;20097;-48
2022/08/25 01:52:57;;;;;;;17.33;5.30;;;;;;;20.34;100.00;98719.47;5171855;27;20057;-49
2022/08/25 01:55:25;;;;;;;13.55;5.60;;;;;;;20.38;100.00;98727.72;5171916;27;20057;-52
2022/08/25 01:57:51;;;;;;;17.88;5.03;;;;;;;20.34;100.00;98722.25;5172024;27;20164;-51
2022/08/25 02:00:19;;;;;;;13.90;5.82;;;;;;;20.31;100.00;98750.19;5171951;27;20042;-48
2022/08/25 02:02:46;;;;;;;9.75;3.80;;;;;;;20.33;100.00;98740.19;5171957;27;20144;-52
2022/08/25 02:05:15;;;;;;;10.60;4.05;;;;;;;20.36;100.00;98749.66;5175382;27;20050;-48
2022/08/25 02:07:42;;;;;;;10.70;4.00;;;;;;;20.38;100.00;98745.19;5175275;27;20049;-47
2022/08/25 02:10:10;;;;;;;14.30;4.55;;;;;;;20.35;100.00;98757.22;5175762;27;20154;-47
2022/08/25 02:12:37;;;;;;;19.30;5.07;;;;;;;20.29;100.00;98763.75;5175035;27;20050;-47
2022/08/25 02:15:05;;;;;;;9.90;4.50;;;;;;;20.31;100.00;98752.97;5175229;27;20105;-48
2022/08/25 02:17:31;;;;;;;7.82;3.90;;;;;;;20.37;100.00;98768.69;5175157;27;20133;-48
2022/08/25 02:19:58;;;;;;;10.02;5.05;;;;;;;20.40;100.00;98744.78;5175282;27;20133;-47
2022/08/25 02:22:24;;;;;;;12.27;5.63;;;;;;;20.33;100.00;98747.78;5174995;27;20046;-47
2022/08/25 02:24:51;;;;;;;15.25;4.55;;;;;;;20.44;100.00;98748.22;5175006;27;20665;-51
2022/08/25 02:27:17;;;;;;;16.90;6.03;;;;;;;20.37;100.00;98752.00;5175204;27;20520;-52
2022/08/25 02:29:44;;;;;;;6.90;4.10;;;;;;;20.42;100.00;98786.84;5175081;27;20046;-47
2022/08/25 02:32:10;;;;;;;13.32;4.13;;;;;;;20.45;100.00;98760.91;5174992;27;20492;-47
2022/08/25 02:34:36;;;;;;;12.55;5.47;;;;;;;20.37;100.00;98790.19;5174737;27;20529;-48
2022/08/25 02:37:03;;;;;;;10.00;4.35;;;;;;;20.40;100.00;98789.31;5175303;27;20485;-49
2022/08/25 02:39:29;;;;;;;12.43;5.22;;;;;;;20.35;100.00;98809.34;5174810;27;20478;-48
2022/08/25 02:41:55;;;;;;;9.73;3.42;;;;;;;20.23;100.00;98852.59;5174998;27;20050;-50
2022/08/25 02:44:21;;;;;;;11.63;4.10;;;;;;;20.21;100.00;98874.53;5174848;27;20424;-51
2022/08/25 02:46:48;;;;;;;10.43;3.90;;;;;;;20.13;100.00;98870.38;5174856;27;20060;-51
2022/08/25 02:49:15;;;;;;;9.32;4.13;;;;;;;20.16;100.00;98900.13;5174816;27;20050;-48
2022/08/25 02:51:41;;;;;;;12.00;4.38;;;;;;;20.12;100.00;98869.56;5174498;27;20141;-51
2022/08/25 02:54:08;;;;;;;10.13;4.32;;;;;;;20.06;100.00;98909.47;5174725;27;20098;-50
2022/08/25 02:56:34;;;;;;;11.15;4.13;;;;;;;20.05;100.00;98872.53;5174594;27;20069;-49
2022/08/25 02:59:01;;;;;;;12.52;4.20;;;;;;;20.02;100.00;98878.97;5174769;27;20050;-52
2022/08/25 03:01:28;;;;;;;13.48;3.45;;;;;;;19.96;100.00;98864.81;5174446;27;20081;-49
2022/08/25 03:03:56;;;;;;;11.45;5.20;;;;;;;19.97;100.00;98887.84;5175208;27;20137;-51
2022/08/25 03:06:22;;;;;;;9.88;4.00;;;;;;;20.03;100.00;98913.94;5174442;27;20133;-51
2022/08/25 03:08:49;;;;;;;9.52;4.43;;;;;;;20.03;100.00;98911.16;5174511;27;20465;-48
2022/08/25 03:11:16;;;;;;;5.97;4.03;;;;;;;19.98;100.00;98937.50;5174577;27;20085;-51
2022/08/25 03:13:43;;;;;;;10.13;3.75;;;;;;;19.95;100.00;98977.31;5174100;27;20062;-50
2022/08/25 03:16:10;;;;;;;20.13;4.43;;;;;;;19.92;100.00;99010.78;5174489;27;20481;-52
2022/08/25 03:18:37;;;;;;;11.63;4.22;;;;;;;19.92;100.00;99011.56;5174483;27;20483;-49
2022/08/25 03:21:05;;;;;;;7.63;3.75;;;;;;;19.88;100.00;98998.94;5174544;27;20050;-48
2022/08/25 03:23:31;;;;;;;11.95;5.80;;;;;;;19.92;100.00;99000.41;5174192;27;20117;-47
2022/08/25 03:28:41;;;;;;;;;;;;;;;20.01;100.00;99004.63;5174522;27;20049;-49
2022/08/25 03:31:09;;;;;;;16.60;5.47;;;;;;;19.98;100.00;99048.00;5173928;27;19966;-52
2022/08/25 03:33:37;;;;;;;15.60;3.95;;;;;;;19.99;100.00;99052.34;5173781;27;20421;-50
2022/08/25 03:36:04;;;;;;;9.32;5.10;;;;;;;20.06;100.00;99046.63;5174079;27;20050;-51
2022/08/25 03:38:30;;;;;;;6.70;3.80;;;;;;;20.26;100.00;98929.69;5173965;27;20061;-50
2022/08/25 03:40:57;;;;;;;10.90;3.92;;;;;;;20.63;100.00;98864.28;5173788;27;20130;-48
2022/08/25 03:43:23;;;;;;;16.17;4.30;;;;;;;20.98;100.00;98763.38;5173929;27;20050;-52
2022/08/25 03:45:49;;;;;;;10.80;4.28;;;;;;;21.22;100.00;98728.34;5173610;27;20501;-50
2022/08/25 03:48:17;;;;;;;12.10;3.80;;;;;;;21.53;100.00;98697.91;5173803;27;20090;-52
2022/08/25 03:50:45;;;;;;;12.52;3.80;;;;;;;21.82;100.00;98691.31;5173595;27;20569;-48
2022/08/25 03:53:12;;;;;;;7.35;4.10;;;;;;;22.15;100.00;98688.16;5173705;27;20050;-51
2022/08/25 03:55:39;;;;;;;8.38;3.72;;;;;;;22.50;100.00;98689.66;5173558;27;20042;-49
2022/08/25 03:58:05;;;;;;;7.25;3.90;;;;;;;22.77;100.00;98691.78;5173670;27;20186;-51
2022/08/25 04:00:31;;;;;;;6.78;4.05;;;;;;;22.99;100.00;98710.53;5173307;27;20050;-51
2022/08/25 04:02:58;;;;;;;13.15;5.13;;;;;;;23.00;100.00;98721.25;5173435;27;20092;-51
2022/08/25 04:05:24;;;;;;;10.82;4.28;;;;;;;23.35;100.00;98714.69;5173409;27;20109;-50
2022/08/25 04:07:50;;;;;;;18.15;5.57;;;;;;;23.75;100.00;98758.63;5173353;27;20050;-50
2022/08/25 04:10:17;;;;;;;11.10;3.80;;;;;;;23.79;100.00;98767.63;5173515;27;20046;-51
2022/08/25 04:12:44;;;;;;;14.23;6.05;;;;;;;24.13;100.00;98797.41;5173264;27;20050;-52
2022/08/25 04:15:10;;;;;;;8.88;4.25;;;;;;;23.62;100.00;98756.69;5173425;27;20062;-51
2022/08/25 04:17:38;;;;;;;10.15;3.97;;;;;;;24.25;100.00;98806.88;5173079;27;20133;-49
2022/08/25 04:20:07;;;;;;;18.05;5.38;;;;;;;24.51;100.00;98826.97;5173320;27;20057;-51
2022/08/25 04:22:33;;;;;;;14.18;5.30;;;;;;;24.72;100.00;98847.66;5173064;27;20047;-50
2022/08/25 04:24:59;;;;;;;20.63;5.40;;;;;;;25.15;100.00;98897.00;5172792;27;20086;-51
2022/08/25 04:27:26;;;;;;;20.40;4.70;;;;;;;25.38;100.00;98903.94;5172431;27;20137;-52
2022/08/25 04:29:53;;;;;;;18.58;5.32;;;;;;;25.48;100.00;98927.94;5172895;27;20042;-49
2022/08/25 04:32:19;;;;;;;18.92;5.63;;;;;;;25.87;100.00;98947.78;5172991;27;20058;-54
2022/08/25 04:34:47;;;;;;;12.90;5.22;;;;;;;25.78;100.00;98957.00;5172915;27;20056;-52
2022/08/25 04:37:13;;;;;;;12.02;5.22;;;;;;;25.63;100.00;98958.16;5173034;27;20137;-51
2022/08/25 04:39:40;;;;;;;15.10;5.22;;;;;;;26.10;100.00;98959.53;5172822;27;20109;-52
2022/08/25 04:42:06;;;;;;;13.95;5.55;;;;;;;26.01;100.00;98982.84;5172819;27;20062;-52
2022/08/25 04:44:33;;;;;;;19.52;5.55;;;;;;;26.51;100.00;99008.50;5172686;27;20524;-52
2022/08/25 04:47:01;;;;;;;12.07;4.57;;;;;;;26.35;100.00;99023.72;5172884;27;20141;-53
2022/08/25 04:49:27;;;;;;;10.95;4.97;;;;;;;26.05;100.00;98977.81;5172667;27;20159;-49
2022/08/25 04:51:55;;;;;;;14.30;5.05;;;;;;;26.16;100.00;99050.38;5172609;27;20046;-52
2022/08/25 04:54:21;;;;;;;12.45;4.75;;;;;;;26.40;100.00;99019.50;5172650;27;20497;-51
2022/08/25 04:56:48;;;;;;;12.55;4.65;;;;;;;26.41;100.00;99071.63;5172980;27;20050;-52
2022/08/25 04:59:17;;;;;;;10.63;4.70;;;;;;;26.96;100.00;99048.84;5172653;27;20050;-51
2022/08/25 05:01:45;;;;;;;10.93;4.38;;;;;;;26.72;100.00;99069.31;5172248;27;20416;-53
2022/08/25 05:04:13;;;;;;;13.15;4.60;;;;;;;26.84;100.00;99055.50;5172626;27;20042;-53
2022/08/25 05:06:40;;;;;;;12.35;5.30;;;;;;;26.81;100.00;99045.97;5172254;27;20051;-52
2022/08/25 05:09:07;;;;;;;12.93;4.75;;;;;;;27.41;100.00;99066.63;5172281;27;20047;-52
2022/08/25 05:11:33;;;;;;;19.10;5.15;;;;;;;27.90;100.00;99099.06;5172278;27;20134;-53
2022/08/25 05:14:01;;;;;;;14.88;4.88;;;;;;;28.20;100.00;99107.50;5172482;27;20093;-53
2022/08/25 05:16:28;;;;;;;14.90;4.80;;;;;;;28.49;100.00;99126.44;5172395;27;20049;-53
2022/08/25 05:18:56;;;;;;;17.90;4.82;;;;;;;28.30;100.00;99142.78;5172205;27;20129;-51
2022/08/25 05:21:25;;;;;;;14.93;4.80;;;;;;;28.35;100.00;99161.81;5172035;27;20104;-51
2022/08/25 05:23:56;;;;;;;9.88;4.07;;;;;;;27.94;100.00;99132.69;5172024;27;20046;-53
2022/08/25 05:26:23;;;;;;;17.67;4.45;;;;;;;28.93;100.00;99173.53;5172415;27;20061;-52
2022/08/25 05:28:51;;;;;;;12.13;4.43;;;;;;;29.45;100.00;99202.75;5171998;27;20088;-53
2022/08/25 05:31:19;;;;;;;14.45;4.75;;;;;;;29.75;100.00;99211.88;5172051;27;20461;-58
2022/08/25 05:33:45;;;;;;;10.50;4.22;;;;;;;30.23;100.00;99216.31;5171946;27;20042;-56
2022/08/25 05:36:13;;;;;;;17.73;4.78;;;;;;;30.23;100.00;99219.13;5172204;27;20053;-54
2022/08/25 05:38:40;;;;;;;15.25;4.38;;;;;;;30.46;100.00;99217.28;5175560;27;20050;-54
2022/08/25 05:41:09;;;;;;;14.50;4.28;;;;;;;29.97;100.00;99233.22;5175895;27;20046;-55
2022/08/25 05:43:36;;;;;;;14.45;4.95;;;;;;;30.57;100.00;99245.66;5175339;27;20145;-55
2022/08/25 05:46:03;;;;;;;16.83;4.75;;;;;;;30.85;100.00;99245.91;5175704;27;20042;-57
2022/08/25 05:48:29;;;;;;;12.65;5.03;;;;;;;31.04;100.00;99239.88;5175511;27;20142;-57
2022/08/25 05:50:57;;;;;;;18.55;5.32;;;;;;;30.39;100.00;99241.13;5175407;27;20046;-55
2022/08/25 05:53:25;;;;;;;13.93;4.97;;;;;;;30.78;100.00;99286.00;5175498;27;20050;-53
2022/08/25 05:55:53;;;;;;;19.13;4.20;;;;;;;30.50;100.00;99293.44;5175345;27;20050;-55
2022/08/25 05:58:20;;;;;;;23.17;5.07;;;;;;;31.50;100.00;99307.69;5175487;27;20511;-60
2022/08/25 06:00:47;;;;;;;17.05;4.82;;;;;;;31.49;100.00;99294.00;5175203;27;20458;-60
2022/08/25 06:03:13;;;;;;;15.68;4.05;;;;;;;32.08;100.00;99304.63;5175450;27;20093;-60
2022/08/25 06:05:39;;;;;;;16.05;4.45;;;;;;;31.51;100.00;99333.94;5175081;27;20054;-60
2022/08/25 06:08:06;;;;;;;15.13;4.57;;;;;;;31.92;100.00;99328.00;5175373;27;20050;-60
2022/08/25 06:10:34;;;;;;;13.70;4.10;;;;;;;32.24;100.00;99325.81;5175222;27;20087;-60
2022/08/25 06:13:00;;;;;;;15.57;4.72;;;;;;;31.59;100.00;99310.31;5175246;27;20093;-61
2022/08/25 06:15:27;;;;;;;12.55;4.07;;;;;;;32.47;100.00;99318.19;5175208;27;20134;-61
2022/08/25 06:17:55;;;;;;;13.27;4.20;;;;;;;32.79;100.00;99330.88;5174810;27;20042;-59
2022/08/25 06:20:23;;;;;;;15.63;4.38;;;;;;;32.19;100.00;99341.56;5175350;27;20042;-55
2022/08/25 06:22:51;;;;;;;13.80;4.50;;;;;;;32.06;100.00;99335.56;5174849;27;20050;-55
2022/08/25 06:25:19;;;;;;;13.30;3.60;;;;;;;31.13;100.00;99345.25;5175219;27;20071;-56
2022/08/25 06:27:47;;;;;;;11.80;4.10;;;;;;;32.16;100.00;99348.25;5174882;27;20545;-53
2022/08/25 06:30:15;;;;;;;16.48;3.97;;;;;;;31.79;100.00;99345.44;5174984;27;20523;-55
2022/08/25 06:32:44;;;;;;;13.90;3.75;;;;;;;32.56;100.00;99366.19;5174723;27;20089;-54
2022/08/25 06:35:13;;;;;;;15.10;3.83;;;;;;;32.06;100.00;99363.94;5175084;27;20085;-55
2022/08/25 06:37:41;;;;;;;11.85;3.20;;;;;;;32.07;100.00;99373.97;5174828;27;20133;-56
2022/08/25 06:40:12;;;;;;;15.60;3.95;;;;;;;31.60;100.00;99373.44;5174832;27;20049;-56
2022/08/25 06:42:38;;;;;;;9.60;3.92;;;;;;;32.91;100.00;99379.16;5174727;27;20733;-53
2022/08/25 06:45:07;;;;;;;14.02;3.80;;;;;;;33.09;99.87;99384.38;5174587;27;20133;-54
2022/08/25 06:47:33;;;;;;;15.52;4.20;;;;;;;32.90;100.00;99384.06;5174989;27;20050;-54
2022/08/25 06:49:59;;;;;;;14.93;3.95;;;;;;;33.79;96.88;99396.75;5174195;27;20082;-56
2022/08/25 06:52:26;;;;;;;11.43;4.40;;;;;;;32.79;98.57;99395.41;5174752;27;20082;-56
2022/08/25 06:54:53;;;;;;;16.48;4.07;;;;;;;33.01;98.32;99391.84;5174451;27;20088;-53
2022/08/25 06:57:19;;;;;;;15.38;4.38;;;;;;;34.07;94.81;99393.84;5174809;27;20501;-57
2022/08/25 06:59:46;;;;;;;11.35;4.35;;;;;;;34.09;94.71;99396.97;5174332;27;20141;-55
2022/08/25 07:02:13;;;;;;;24.08;4.93;;;;;;;34.87;93.11;99395.81;5174481;27;20141;-56
2022/08/25 07:04:39;;;;;;;15.93;4.50;;;;;;;35.04;91.83;99404.28;5174296;27;20141;-56
2022/08/25 07:07:05;;;;;;;12.70;4.30;;;;;;;35.17;89.85;99412.22;5174220;27;20092;-54
2022/08/25 07:09:33;;;;;;;19.70;4.25;;;;;;;33.88;92.84;99407.06;5174150;27;20128;-54
2022/08/25 07:12:01;;;;;;;11.13;4.03;;;;;;;34.23;93.17;99400.78;5174242;27;20617;-56
2022/08/25 07:14:27;;;;;;;16.13;3.38;;;;;;;33.82;91.34;99404.22;5174519;27;20046;-56
2022/08/25 07:16:53;;;;;;;10.70;3.70;;;;;;;33.94;90.72;99408.59;5174257;27;20534;-56
2022/08/25 07:19:20;;;;;;;14.38;3.90;;;;;;;35.49;87.55;99421.03;5174327;27;20137;-55
2022/08/25 07:21:50;;;;;;;13.93;4.03;;;;;;;34.56;86.49;99422.66;5173926;27;20492;-56
2022/08/25 07:24:16;;;;;;;17.10;3.90;;;;;;;35.09;87.95;99412.03;5174363;27;20073;-56
2022/08/25 07:26:45;;;;;;;10.95;4.32;;;;;;;35.65;88.01;99410.78;5174150;27;20179;-53
2022/08/25 07:29:14;;;;;;;11.63;4.13;;;;;;;36.05;88.05;99400.53;5174548;27;20090;-53
2022/08/25 07:31:41;;;;;;;14.00;3.65;;;;;;;36.38;86.97;99412.09;5173928;27;20110;-55
2022/08/25 07:36:52;;;;;;;14.20;3.45;;;;;;;36.27;86.24;99407.28;5173911;27;20095;-53
2022/08/25 07:39:19;;;;;;;13.23;3.92;;;;;;;35.88;85.09;99413.41;5173729;27;20054;-56
2022/08/25 07:41:45;;;;;;;12.40;3.35;;;;;;;35.79;84.98;99401.06;5173905;27;20465;-53
2022/08/25 07:44:12;;;;;;;16.17;3.95;;;;;;;34.74;85.60;99409.88;5173867;27;20071;-57
2022/08/25 07:46:39;;;;;;;24.27;4.60;;;;;;;35.90;82.39;99417.28;5173759;27;20053;-53
2022/08/25 07:49:06;;;;;;;16.40;4.10;;;;;;;34.67;86.17;99401.91;5173668;27;20053;-56
2022/08/25 07:51:32;;;;;;;18.52;4.60;;;;;;;35.27;86.73;99398.41;5173900;27;20129;-56
2022/08/25 07:54:00;;;;;;;14.43;4.47;;;;;;;34.66;85.67;99401.13;5173565;27;20090;-54
2022/08/25 07:56:26;;;;;;;19.77;4.25;;;;;;;35.83;83.66;99403.63;5173793;27;20050;-54
2022/08/25 07:58:52;;;;;;;13.00;4.82;;;;;;;36.48;81.79;99398.97;5173417;27;20085;-54
2022/08/25 08:01:22;;;;;;;12.98;3.85;;;;;;;36.04;81.73;99396.13;5172233;27;20425;-54
2022/08/25 08:03:49;;;;;;;21.02;4.10;;;;;;;35.60;80.91;99411.63;5173276;27;20512;-54
2022/08/25 08:06:20;;;;;;;14.25;3.90;;;;;;;34.64;82.67;99405.78;5173156;27;20050;-54
2022/08/25 08:08:48;;;;;;;15.48;4.15;;;;;;;34.47;86.19;99391.63;5173419;27;20146;-53
2022/08/25 08:11:16;;;;;;;11.73;3.75;;;;;;;35.49;83.16;99397.41;5173321;27;20118;-57
2022/08/25 08:13:43;;;;;;;16.55;3.85;;;;;;;35.39;82.95;99391.31;5173365;27;20065;-53
2022/08/25 08:16:10;;;;;;;18.65;3.78;;;;;;;36.34;86.40;99381.00;5173114;27;20137;-58
2022/08/25 08:18:36;;;;;;;11.85;4.15;;;;;;;35.54;81.99;99402.34;5173438;27;20077;-57
2022/08/25 08:21:03;;;;;;;13.82;3.80;;;;;;;36.54;81.81;99394.00;5172953;27;20099;-57
2022/08/25 08:23:29;;;;;;;18.98;4.13;;;;;;;36.58;78.75;99407.97;5173193;27;20056;-56
2022/08/25 08:25:55;;;;;;;11.90;4.03;;;;;;;35.64;80.48;99392.13;5173377;27;20052;-53
2022/08/25 08:28:26;;;;;;;12.88;3.58;;;;;;;36.17;82.02;99389.75;5173309;27;20092;-56
2022/08/25 08:30:52;;;;;;;14.13;3.67;;;;;;;35.79;77.87;99412.47;5172950;27;20046;-56
2022/08/25 08:33:19;;;;;;;14.88;3.70;;;;;;;35.18;80.14;99402.34;5172690;27;20528;-56
2022/08/25 08:35:45;;;;;;;14.45;3.40;;;;;;;36.14;77.40;99402.25;5172817;27;20046;-54
2022/08/25 08:38:11;;;;;;;13.93;3.20;;;;;;;34.93;80.08;99397.88;5172858;27;20050;-57
2022/08/25 08:42:15;;;;;;;15.73;3.58;;;;;;;35.74;76.08;99413.28;5173150;27;20098;-55
2022/08/25 08:43:35;;;;;;;13.73;3.58;;;;;;;35.18;75.07;99413.75;5172502;27;20046;-54
2022/08/25 08:46:03;;;;;;;10.35;2.72;;;;;;;35.69;73.97;99416.19;5173028;27;20413;-55
2022/08/25 08:48:55;;;;;;;10.18;3.42;;;;;;;35.86;72.28;99413.19;5172598;27;20057;-57
2022/08/25 08:51:25;;;;;;;14.65;3.70;;;;;;;36.28;72.75;99421.00;5161138;27;20093;-56
2022/08/25 08:53:55;;;;;;;11.70;3.20;;;;;;;35.78;73.52;99418.69;5172652;27;20050;-57
2022/08/25 08:56:25;;;;;;;6.50;2.97;;;;;;;34.69;75.26;99412.75;5172754;27;20131;-55
2022/08/25 08:58:55;;;;;;;10.35;3.25;;;;;;;35.47;74.14;99415.06;5172619;27;20105;-57
2022/08/25 09:01:25;;;;;;;14.57;3.13;;;;;;;35.24;74.79;99405.94;5172522;27;20053;-56
2022/08/25 09:03:58;;;;;;;13.05;3.13;;;;;;;34.64;76.07;99395.19;5172481;27;20046;-53
2022/08/25 09:06:30;;;;;;;6.95;2.90;;;;;;;35.81;71.29;99417.63;5172495;27;20548;-56
2022/08/25 09:09:01;;;;;;;7.43;2.73;;;;;;;36.15;71.32;99411.59;5172498;27;20533;-55
2022/08/25 09:11:45;;;;;;;12.60;3.03;;;;;;;36.00;70.40;99421.31;5171863;27;20057;-54
2022/08/25 09:14:27;;;;;;;16.05;3.10;;;;;;;34.92;71.63;99416.25;5172597;27;20674;-56
2022/08/25 09:17:00;;;;;;;6.68;3.08;;;;;;;34.99;70.13;99427.84;5172244;27;20084;-56
2022/08/25 09:19:54;;;;;;;7.95;2.80;;;;;;;35.90;69.12;99419.38;5172461;27;20906;-56
2022/08/25 09:22:34;;;;;;;12.52;2.78;;;;;;;36.45;66.31;99422.88;5172323;27;20474;-56
2022/08/25 09:25:10;;;;;;;10.82;3.15;;;;;;;36.55;66.71;99417.59;5172275;27;20054;-54
2022/08/25 09:27:44;;;;;;;11.70;2.85;;;;;;;35.99;66.59;99416.94;5171969;27;20584;-55
2022/08/25 09:30:14;;;;;;;10.32;2.60;;;;;;;36.69;66.73;99413.50;5172307;27;20137;-55
2022/08/25 09:32:42;;;;;;;10.48;3.35;;;;;;;35.83;67.35;99423.59;5172172;27;20417;-57
2022/08/25 09:35:17;;;;;;;11.15;3.35;;;;;;;35.48;68.71;99404.44;5172102;27;20500;-56
2022/08/25 09:37:55;;;;;;;13.43;2.95;;;;;;;35.13;68.64;99408.88;5171873;27;20137;-54
2022/08/25 09:40:23;;;;;;;7.18;2.50;;;;;;;35.26;67.61;99414.75;5172191;27;20046;-56
2022/08/25 09:42:52;;;;;;;10.07;3.30;;;;;;;35.03;68.40;99414.13;5171838;27;20149;-57
2022/08/25 09:45:36;;;;;;;9.52;2.83;;;;;;;35.51;68.65;99411.94;5171760;27;20088;-56
2022/08/25 09:48:20;;;;;;;11.57;2.80;;;;;;;35.06;68.97;99403.75;5171955;27;20086;-56
2022/08/25 09:50:47;;;;;;;14.15;3.25;;;;;;;34.90;68.30;99403.31;5171801;27;20050;-56
2022/08/25 09:53:16;;;;;;;12.07;3.20;;;;;;;36.23;69.13;99390.47;5171550;27;20059;-57
2022/08/25 09:55:45;;;;;;;12.95;2.95;;;;;;;36.53;66.19;99394.53;5171753;27;20042;-56
2022/08/25 09:58:18;;;;;;;6.28;2.70;;;;;;;35.01;65.70;99404.53;5171840;27;20046;-53
2022/08/25 10:01:14;;;;;;;7.65;3.10;;;;;;;34.84;65.25;99404.66;5171785;27;20058;-56
2022/08/25 10:03:54;;;;;;;10.82;3.03;;;;;;;35.04;66.50;99395.72;5168873;27;20061;-57
2022/08/25 10:06:22;;;;;;;8.85;3.30;;;;;;;36.18;64.73;99388.44;5172251;27;20046;-54
2022/08/25 10:08:55;;;;;;;8.85;3.13;;;;;;;36.37;66.17;99390.56;5171882;27;20787;-56
2022/08/25 10:11:35;;;;;;;9.73;3.22;;;;;;;36.01;65.80;99387.88;5171781;27;20050;-56
2022/08/25 10:14:04;;;;;;;11.80;3.00;;;;;;;36.52;65.44;99388.03;5171397;27;20156;-56
2022/08/25 10:16:32;;;;;;;13.95;2.78;;;;;;;36.10;67.67;99381.81;5171877;27;20046;-57
2022/08/25 10:19:05;;;;;;;9.07;3.83;;;;;;;36.44;66.90;99378.53;5171528;27;20054;-57
2022/08/25 10:21:32;;;;;;;10.00;3.10;;;;;;;36.45;66.23;99374.34;5171362;27;20497;-55
2022/08/25 10:24:01;;;;;;;14.10;2.83;;;;;;;34.94;67.58;99374.53;5172299;27;20054;-56
2022/08/25 10:26:36;;;;;;;11.57;2.83;;;;;;;35.69;67.64;99365.66;5175070;27;20050;-56
2022/08/25 10:29:17;;;;;;;7.85;2.97;;;;;;;34.96;65.67;99376.88;5174931;27;20057;-56
2022/08/25 10:31:52;;;;;;;10.20;2.80;;;;;;;35.33;64.81;99379.19;5174883;27;20042;-54
2022/08/25 10:34:33;;;;;;;11.70;2.95;;;;;;;35.38;66.75;99369.78;5175214;27;20473;-56
2022/08/25 10:37:11;;;;;;;11.75;2.90;;;;;;;35.40;65.63;99369.28;5174864;27;20488;-54
2022/08/25 10:39:41;;;;;;;10.88;3.03;;;;;;;35.65;63.89;99372.94;5174887;27;20047;-56
2022/08/25 10:42:28;;;;;;;13.30;3.00;;;;;;;35.21;65.09;99375.66;5174806;27;20557;-56
2022/08/25 10:48:12;;;;;;;8.43;2.88;;;;;;;34.63;65.51;99368.00;5174886;27;20049;-55
2022/08/25 10:50:43;;;;;;;9.65;2.83;;;;;;;33.46;67.17;99363.44;5174601;27;20097;-55
2022/08/25 10:53:20;;;;;;;7.03;2.75;;;;;;;34.13;67.22;99360.47;5174566;27;20062;-55
2022/08/25 10:56:00;;;;;;;9.18;2.80;;;;;;;33.63;65.79;99369.13;5174516;27;20073;-55
2022/08/25 10:58:53;;;;;;;17.00;3.17;;;;;;;32.88;70.44;99348.94;5174545;27;20046;-53
2022/08/25 11:01:35;;;;;;;12.13;2.92;;;;;;;33.31;68.31;99340.97;5174978;27;20042;-56
2022/08/25 11:04:07;;;;;;;14.23;2.70;;;;;;;33.63;67.89;99347.16;5174659;27;20046;-56
2022/08/25 11:06:40;;;;;;;12.35;2.60;;;;;;;33.46;67.88;99335.03;5174636;27;20050;-55
2022/08/25 11:09:10;;;;;;;11.43;2.70;;;;;;;32.84;68.54;99348.44;5174605;27;20042;-56
2022/08/25 11:11:44;;;;;;;10.05;2.60;;;;;;;32.46;67.79;99345.78;5174309;27;20056;-56
2022/08/25 11:14:17;;;;;;;6.55;2.65;;;;;;;33.36;67.13;99333.75;5174444;27;20444;-55
2022/08/25 11:16:51;;;;;;;14.27;2.47;;;;;;;32.74;67.54;99333.72;5174384;27;20050;-54
2022/08/25 11:19:25;;;;;;;6.43;2.58;;;;;;;32.23;69.80;99322.22;5174058;27;20054;-56
2022/08/25 11:22:00;;;;;;;8.25;2.38;;;;;;;32.35;70.24;99312.44;5174129;27;20421;-56
2022/08/25 11:24:51;;;;;;;14.30;2.50;;;;;;;32.16;69.64;99319.09;5173947;27;20085;-56
2022/08/25 11:27:21;;;;;;;7.50;2.38;;;;;;;32.03;69.11;99313.91;5173814;27;20050;-54
2022/08/25 11:29:58;;;;;;;6.95;2.35;;;;;;;31.97;70.31;99315.94;5173669;27;20046;-54
2022/08/25 11:32:25;;;;;;;6.28;2.50;;;;;;;32.12;69.40;99313.66;5174100;27;20058;-54
2022/08/25 11:34:53;;;;;;;9.90;2.88;;;;;;;31.74;67.76;99318.63;5173610;27;20050;-56
2022/08/25 11:37:24;;;;;;;3.97;1.95;;;;;;;31.80;68.59;99304.50;5173937;27;20449;-54
2022/08/25 11:40:16;;;;;;;9.77;2.70;;;;;;;32.08;68.26;99310.28;5173733;27;20062;-52